Time;durP1;ratioP1;P1;durP2;ratioP2;P2;SDS_P1;SDS_P2;PMS_P1;PMS_P2;Temp;Humidity;BMP_temperature;BMP_pressure;BME280_temperature;BME280_humidity;BME280_pressure;Samples;Min_cycle;Max_cycle;Signal;HPM_P1;HPM_P2
2022/10/30 00:00:26;;;;;;;21.25;11.45;;;15.70;99.90;;;;;;5052698;28;20513;-82
2022/10/30 00:02:52;;;;;;;21.13;11.00;;;15.70;99.90;;;;;;5034857;28;20123;-82
2022/10/30 00:05:19;;;;;;;22.73;11.48;;;15.70;99.90;;;;;;5017471;28;20140;-81
2022/10/30 00:07:46;;;;;;;25.88;10.70;;;15.80;99.90;;;;;;5016782;28;20033;-82
2022/10/30 00:10:11;;;;;;;25.10;10.82;;;15.80;99.90;;;;;;5026571;28;20136;-82
2022/10/30 00:12:37;;;;;;;21.65;10.93;;;15.80;99.90;;;;;;5017923;28;20123;-82
2022/10/30 00:15:04;;;;;;;21.20;10.70;;;15.80;99.90;;;;;;5019449;28;20048;-82
2022/10/30 00:17:30;;;;;;;23.63;11.00;;;15.80;99.90;;;;;;5044704;28;20051;-82
2022/10/30 00:19:55;;;;;;;21.67;9.98;;;15.80;99.90;;;;;;5063091;28;20040;-82
2022/10/30 00:22:21;;;;;;;22.08;11.30;;;15.90;99.90;;;;;;5055193;28;20194;-81
2022/10/30 00:24:47;;;;;;;27.60;11.20;;;15.90;99.90;;;;;;5070793;28;20454;-82
2022/10/30 00:27:12;;;;;;;22.23;10.80;;;15.90;99.90;;;;;;5056260;28;20127;-81
2022/10/30 00:29:38;;;;;;;22.95;10.35;;;15.90;99.90;;;;;;5061071;28;20044;-82
2022/10/30 00:32:04;;;;;;;19.90;9.55;;;15.70;99.90;;;;;;5044776;28;20148;-82
2022/10/30 00:34:30;;;;;;;20.17;10.75;;;15.90;99.90;;;;;;5035916;28;20048;-82
2022/10/30 00:36:55;;;;;;;19.48;9.85;;;15.90;99.90;;;;;;5039985;28;20048;-81
2022/10/30 00:39:21;;;;;;;19.52;9.95;;;15.90;99.90;;;;;;5054997;28;20052;-81
2022/10/30 00:41:47;;;;;;;22.58;10.13;;;15.90;99.90;;;;;;5054975;28;20088;-82
2022/10/30 00:44:36;;;;;;;20.10;9.85;;;15.90;99.90;;;;;;5054298;28;20041;-82
2022/10/30 00:47:05;;;;;;;23.15;9.75;;;15.90;99.90;;;;;;5054719;28;20458;-82
2022/10/30 00:49:35;;;;;;;24.83;10.43;;;15.90;99.90;;;;;;5064810;28;20049;-81
2022/10/30 00:52:04;;;;;;;24.23;10.75;;;15.90;99.90;;;;;;5034753;28;20436;-82
2022/10/30 00:54:32;;;;;;;24.40;10.10;;;15.90;99.90;;;;;;5034131;28;20042;-82
2022/10/30 00:57:00;;;;;;;21.38;10.75;;;15.90;99.90;;;;;;5034287;28;20037;-82
2022/10/30 00:59:29;;;;;;;25.15;9.98;;;15.80;99.90;;;;;;5033759;28;20056;-82
2022/10/30 01:01:56;;;;;;;24.50;10.85;;;15.90;99.90;;;;;;5026842;28;20048;-81
2022/10/30 01:04:23;;;;;;;20.38;9.80;;;15.90;99.90;;;;;;5053759;28;20056;-82
2022/10/30 01:06:50;;;;;;;20.15;10.38;;;15.80;99.90;;;;;;5049425;28;20476;-81
2022/10/30 01:09:18;;;;;;;20.35;10.15;;;15.80;99.90;;;;;;5053988;28;20044;-81
2022/10/30 01:11:44;;;;;;;17.42;9.52;;;15.80;99.90;;;;;;5053402;28;20060;-81
2022/10/30 01:14:11;;;;;;;23.45;10.32;;;15.80;99.90;;;;;;5034279;28;20049;-81
2022/10/30 01:17:03;;;;;;;20.15;9.93;;;15.80;99.90;;;;;;5057197;28;20075;-81
2022/10/30 01:19:41;;;;;;;20.80;10.38;;;15.80;99.90;;;;;;5040839;28;20049;-82
2022/10/30 01:22:24;;;;;;;22.10;9.63;;;15.80;99.90;;;;;;5048030;28;20052;-81
2022/10/30 01:25:11;;;;;;;21.58;9.85;;;15.80;99.90;;;;;;5054435;28;20049;-81
2022/10/30 01:27:55;;;;;;;21.30;10.32;;;15.80;99.90;;;;;;5052022;28;20099;-81
2022/10/30 01:30:45;;;;;;;23.80;9.90;;;15.80;99.90;;;;;;5035342;28;20474;-82
2022/10/30 01:33:25;;;;;;;23.52;9.88;;;15.80;99.90;;;;;;5040295;28;20471;-82
2022/10/30 01:36:21;;;;;;;25.83;10.43;;;15.80;99.90;;;;;;5059221;28;20059;-81
2022/10/30 01:38:52;;;;;;;20.17;10.02;;;15.80;99.90;;;;;;5057463;28;20493;-82
2022/10/30 01:41:18;;;;;;;20.83;10.02;;;15.80;99.90;;;;;;5076384;28;20121;-82
2022/10/30 01:43:47;;;;;;;24.67;9.48;;;15.80;99.90;;;;;;5056562;28;20158;-82
2022/10/30 01:46:31;;;;;;;21.25;10.07;;;15.80;99.90;;;;;;5058328;28;20048;-81
2022/10/30 01:49:18;;;;;;;25.73;10.05;;;15.80;99.90;;;;;;5075280;28;20040;-81
2022/10/30 01:51:54;;;;;;;22.05;9.65;;;15.70;99.90;;;;;;5039664;28;20110;-81
2022/10/30 01:54:26;;;;;;;;;;;15.70;99.90;;;;;;5056433;28;20408;-81
2022/10/30 01:57:11;;;;;;;23.90;9.88;;;15.70;99.90;;;;;;5057775;28;20285;-82
2022/10/30 01:59:44;;;;;;;20.23;9.40;;;15.70;99.90;;;;;;5055804;28;20048;-81
2022/10/30 02:02:11;;;;;;;21.38;10.25;;;15.70;99.90;;;;;;5039113;28;20508;-82
2022/10/30 02:04:37;;;;;;;20.92;10.18;;;15.70;99.90;;;;;;5054531;28;20059;-82
2022/10/30 02:07:03;;;;;;;17.65;9.65;;;15.70;99.90;;;;;;5051690;28;20544;-82
2022/10/30 02:09:29;;;;;;;19.33;9.75;;;15.70;99.90;;;;;;5049411;28;20127;-81
2022/10/30 02:11:55;;;;;;;20.08;9.80;;;15.70;99.90;;;;;;5020830;28;20048;-81
2022/10/30 02:14:28;;;;;;;21.95;10.20;;;15.70;99.90;;;;;;5055477;28;20045;-81
2022/10/30 02:16:57;;;;;;;22.05;9.95;;;15.70;99.90;;;;;;5049956;28;20273;-81
2022/10/30 02:19:23;;;;;;;18.65;10.20;;;15.70;99.90;;;;;;5030596;28;20040;-81
2022/10/30 02:21:49;;;;;;;22.70;10.23;;;15.60;99.90;;;;;;5052218;28;20033;-82
2022/10/30 02:24:15;;;;;;;23.10;9.98;;;15.60;99.90;;;;;;5045034;28;20047;-83
2022/10/30 02:26:41;;;;;;;21.83;9.70;;;15.60;99.90;;;;;;5057696;28;20044;-81
2022/10/30 02:29:07;;;;;;;19.17;9.75;;;15.60;99.90;;;;;;5039218;28;20049;-81
2022/10/30 02:31:32;;;;;;;20.80;10.10;;;15.60;99.90;;;;;;5056849;28;20044;-81
2022/10/30 02:33:58;;;;;;;21.17;9.93;;;15.50;99.90;;;;;;5039398;28;20071;-81
2022/10/30 02:36:24;;;;;;;20.02;11.05;;;15.60;99.90;;;;;;5054492;28;20045;-82
2022/10/30 02:38:49;;;;;;;18.85;9.90;;;15.50;99.90;;;;;;5040208;28;20050;-81
2022/10/30 02:41:15;;;;;;;23.73;10.77;;;15.50;99.90;;;;;;5055598;28;20038;-81
2022/10/30 02:43:41;;;;;;;21.00;10.18;;;15.50;99.90;;;;;;5072910;28;20036;-81
2022/10/30 02:46:07;;;;;;;24.15;9.88;;;15.40;99.90;;;;;;5056505;28;20086;-82
2022/10/30 02:48:32;;;;;;;20.88;9.90;;;15.40;99.90;;;;;;5054288;28;20044;-81
2022/10/30 02:50:59;;;;;;;18.77;10.25;;;15.40;99.90;;;;;;5055990;28;20474;-82
2022/10/30 02:53:25;;;;;;;20.88;10.30;;;15.40;99.90;;;;;;5019507;28;20049;-81
2022/10/30 02:55:51;;;;;;;18.75;10.10;;;15.40;99.90;;;;;;5057147;28;20044;-82
2022/10/30 02:58:16;;;;;;;24.08;11.27;;;15.30;99.90;;;;;;5051270;28;20048;-82
2022/10/30 03:00:42;;;;;;;22.17;10.18;;;15.30;99.90;;;;;;5036782;28;20044;-81
2022/10/30 03:03:08;;;;;;;21.67;10.32;;;15.30;99.90;;;;;;5054113;28;20547;-82
2022/10/30 03:05:34;;;;;;;20.48;10.63;;;15.20;99.90;;;;;;5041115;28;20040;-82
2022/10/30 03:07:59;;;;;;;20.80;11.05;;;15.20;99.90;;;;;;5053456;28;20045;-82
2022/10/30 03:10:25;;;;;;;22.75;11.15;;;15.20;99.90;;;;;;5037924;28;20041;-81
2022/10/30 03:12:51;;;;;;;24.10;11.48;;;15.20;99.90;;;;;;5035790;28;20080;-81
2022/10/30 03:15:16;;;;;;;21.33;10.38;;;15.20;99.90;;;;;;5018915;28;20075;-82
2022/10/30 03:17:42;;;;;;;23.10;10.55;;;15.20;99.90;;;;;;5035708;28;20037;-81
2022/10/30 03:20:08;;;;;;;22.25;10.60;;;15.20;99.90;;;;;;5053639;28;20110;-81
2022/10/30 03:22:34;;;;;;;19.90;10.25;;;15.20;99.90;;;;;;5056053;28;20047;-81
2022/10/30 03:24:59;;;;;;;22.25;10.43;;;15.20;99.90;;;;;;5040189;28;20040;-82
2022/10/30 03:27:25;;;;;;;25.35;10.93;;;15.20;99.90;;;;;;5057033;28;20036;-81
2022/10/30 03:29:51;;;;;;;22.30;11.15;;;15.20;99.90;;;;;;5064903;28;20051;-81
2022/10/30 03:32:16;;;;;;;25.83;10.80;;;15.20;99.90;;;;;;5070607;28;20041;-82
2022/10/30 03:34:42;;;;;;;20.17;10.45;;;15.20;99.90;;;;;;5056683;28;20044;-81
2022/10/30 03:37:08;;;;;;;18.40;10.57;;;15.10;99.90;;;;;;5041317;28;20048;-82
2022/10/30 03:39:33;;;;;;;15.82;9.75;;;15.10;99.90;;;;;;5023323;28;20051;-81
2022/10/30 03:41:59;;;;;;;20.20;10.40;;;15.10;99.90;;;;;;5069148;28;20358;-81
2022/10/30 03:44:25;;;;;;;22.95;11.02;;;15.00;99.90;;;;;;5035289;28;20047;-82
2022/10/30 03:46:50;;;;;;;21.90;10.52;;;15.00;99.90;;;;;;5035896;28;20129;-82
2022/10/30 03:49:16;;;;;;;20.60;10.48;;;15.10;99.90;;;;;;5036738;28;20052;-82
2022/10/30 03:51:42;;;;;;;19.67;10.82;;;15.80;99.90;;;;;;5069498;28;20045;-81
2022/10/30 03:54:07;;;;;;;17.52;10.40;;;15.00;99.90;;;;;;5020177;28;20045;-82
2022/10/30 03:56:33;;;;;;;19.02;10.00;;;15.00;99.90;;;;;;5050070;28;20048;-81
2022/10/30 03:58:59;;;;;;;22.33;10.95;;;14.90;99.90;;;;;;5025974;28;20055;-81
2022/10/30 04:01:24;;;;;;;22.33;10.98;;;14.90;99.90;;;;;;5072668;28;20086;-82
2022/10/30 04:03:50;;;;;;;18.65;10.82;;;14.90;99.90;;;;;;5050010;28;20063;-82
2022/10/30 04:06:16;;;;;;;22.10;11.15;;;14.90;99.90;;;;;;5054849;28;20058;-82
2022/10/30 04:08:42;;;;;;;23.55;11.27;;;14.90;99.90;;;;;;5045340;28;20066;-82
2022/10/30 04:11:10;;;;;;;21.98;10.68;;;14.90;99.90;;;;;;5058566;28;20032;-81
2022/10/30 04:13:36;;;;;;;22.35;11.05;;;14.90;99.90;;;;;;5018958;28;20041;-82
2022/10/30 04:16:01;;;;;;;21.38;10.85;;;14.80;99.90;;;;;;5034992;28;20052;-81
2022/10/30 04:18:27;;;;;;;20.08;10.88;;;14.80;99.90;;;;;;5052852;28;20045;-82
2022/10/30 04:20:53;;;;;;;24.25;10.90;;;14.80;99.90;;;;;;5053978;28;20055;-81
2022/10/30 04:23:20;;;;;;;19.48;10.73;;;14.80;99.90;;;;;;5037751;28;20056;-81
2022/10/30 04:25:46;;;;;;;22.35;10.95;;;14.80;99.90;;;;;;5054770;28;20037;-81
2022/10/30 04:28:12;;;;;;;21.20;11.05;;;14.80;99.90;;;;;;5053098;28;20120;-82
2022/10/30 04:30:39;;;;;;;22.50;11.10;;;14.80;99.90;;;;;;5054390;28;20066;-82
2022/10/30 04:33:07;;;;;;;25.30;10.93;;;14.70;99.90;;;;;;5061212;28;20090;-81
2022/10/30 04:35:37;;;;;;;26.30;11.30;;;14.70;99.90;;;;;;5022047;28;20123;-81
2022/10/30 04:38:11;;;;;;;23.52;10.80;;;14.70;99.90;;;;;;5051322;28;20398;-82
2022/10/30 04:40:39;;;;;;;24.80;11.20;;;14.70;99.90;;;;;;5057263;28;20509;-82
2022/10/30 04:43:06;;;;;;;23.33;11.82;;;14.70;99.90;;;;;;5050737;28;20036;-81
2022/10/30 04:45:32;;;;;;;23.02;11.48;;;14.60;99.90;;;;;;5056489;28;20041;-82
2022/10/30 04:48:06;;;;;;;20.45;11.68;;;14.60;99.90;;;;;;5036557;28;20044;-81
2022/10/30 04:50:32;;;;;;;17.92;10.80;;;14.60;99.90;;;;;;5037345;28;20094;-82
2022/10/30 04:53:00;;;;;;;21.98;12.40;;;14.60;99.90;;;;;;5046385;28;20060;-81
2022/10/30 04:55:27;;;;;;;23.48;11.85;;;14.60;99.90;;;;;;5046635;28;20048;-82
2022/10/30 04:57:57;;;;;;;20.50;11.98;;;14.60;99.90;;;;;;5053277;28;20135;-81
2022/10/30 05:00:23;;;;;;;21.67;11.48;;;14.50;99.90;;;;;;5071108;28;20067;-81
2022/10/30 05:02:49;;;;;;;21.00;11.27;;;14.50;99.90;;;;;;5064908;28;20120;-81
2022/10/30 05:05:15;;;;;;;23.55;11.65;;;14.50;99.90;;;;;;5034640;28;20469;-82
2022/10/30 05:07:40;;;;;;;25.73;12.18;;;14.60;99.90;;;;;;5038100;28;20036;-82
2022/10/30 05:10:06;;;;;;;23.42;12.05;;;14.50;99.90;;;;;;5071385;28;20039;-81
2022/10/30 05:12:32;;;;;;;25.52;12.05;;;14.50;99.90;;;;;;5037981;28;20094;-82
2022/10/30 05:14:57;;;;;;;23.50;11.85;;;14.50;99.90;;;;;;5055608;28;20106;-82
2022/10/30 05:17:23;;;;;;;25.20;12.15;;;14.50;99.90;;;;;;5050410;28;20060;-81
2022/10/30 05:19:49;;;;;;;24.27;12.27;;;14.50;99.90;;;;;;5048425;28;20048;-82
2022/10/30 05:22:14;;;;;;;24.17;11.95;;;14.40;99.90;;;;;;5040956;28;20049;-82
2022/10/30 05:24:40;;;;;;;25.10;12.05;;;14.40;99.90;;;;;;5042050;28;20048;-82
2022/10/30 05:27:06;;;;;;;26.85;12.23;;;14.40;99.90;;;;;;5077413;28;20037;-82
2022/10/30 05:29:31;;;;;;;24.98;12.15;;;14.40;99.90;;;;;;5031972;28;20048;-81
2022/10/30 05:31:57;;;;;;;26.13;12.43;;;14.40;99.90;;;;;;5059637;28;20036;-82
2022/10/30 05:34:22;;;;;;;24.02;12.32;;;14.40;99.90;;;;;;5039782;28;20040;-82
2022/10/30 05:36:48;;;;;;;22.27;11.65;;;14.40;99.90;;;;;;5041250;28;20127;-81
2022/10/30 05:39:14;;;;;;;24.77;12.32;;;14.30;99.90;;;;;;5039925;28;20044;-82
2022/10/30 05:41:39;;;;;;;19.98;11.82;;;14.30;99.90;;;;;;5058039;28;20067;-82
2022/10/30 05:44:05;;;;;;;22.60;12.07;;;14.20;99.90;;;;;;5035145;28;20124;-82
2022/10/30 05:46:31;;;;;;;21.83;11.98;;;14.20;99.90;;;;;;5041215;28;20378;-81
2022/10/30 05:48:56;;;;;;;22.35;12.43;;;14.20;99.90;;;;;;5038802;28;20037;-82
2022/10/30 05:51:22;;;;;;;24.10;11.75;;;14.20;99.90;;;;;;5037762;28;20045;-82
2022/10/30 05:53:48;;;;;;;21.67;12.20;;;14.20;99.90;;;;;;5047059;28;20049;-82
2022/10/30 05:56:14;;;;;;;19.80;11.98;;;14.20;99.90;;;;;;5069948;28;20037;-82
2022/10/30 05:58:40;;;;;;;27.85;12.88;;;14.20;99.90;;;;;;5047836;28;20052;-81
2022/10/30 06:01:06;;;;;;;28.02;13.48;;;14.20;99.90;;;;;;5075327;28;20134;-82
2022/10/30 06:03:32;;;;;;;23.15;13.13;;;14.20;99.90;;;;;;5037554;28;20508;-81
2022/10/30 06:05:58;;;;;;;25.88;13.10;;;14.10;99.90;;;;;;5021869;28;20036;-82
2022/10/30 06:08:23;;;;;;;20.95;12.10;;;14.10;99.90;;;;;;5055981;28;20120;-82
2022/10/30 06:10:49;;;;;;;21.45;12.60;;;14.10;99.90;;;;;;5073306;28;20051;-82
2022/10/30 06:13:15;;;;;;;23.38;12.30;;;14.10;99.90;;;;;;5040099;28;20044;-81
2022/10/30 06:15:40;;;;;;;26.90;12.65;;;14.10;99.90;;;;;;5037919;28;20045;-82
2022/10/30 06:18:06;;;;;;;28.23;12.20;;;14.10;99.90;;;;;;5036517;28;20040;-81
2022/10/30 06:20:32;;;;;;;21.98;12.77;;;14.00;99.90;;;;;;5036837;28;20128;-82
2022/10/30 06:23:00;;;;;;;21.58;12.27;;;14.00;99.90;;;;;;5032527;28;20037;-87
2022/10/30 06:25:27;;;;;;;24.15;13.00;;;13.90;99.90;;;;;;5032489;28;20041;-88
2022/10/30 06:27:52;;;;;;;24.10;12.90;;;13.90;99.90;;;;;;5042391;28;20050;-87
2022/10/30 06:30:19;;;;;;;23.27;13.20;;;13.90;99.90;;;;;;5041816;28;20045;-88
2022/10/30 06:32:44;;;;;;;30.98;13.68;;;13.90;99.90;;;;;;5041329;28;20051;-89
2022/10/30 06:35:10;;;;;;;26.85;12.57;;;13.80;99.90;;;;;;5057761;28;20405;-89
2022/10/30 06:37:38;;;;;;;21.95;11.68;;;13.90;99.90;;;;;;5051180;28;20040;-88
2022/10/30 06:40:06;;;;;;;26.88;12.85;;;13.80;99.90;;;;;;5039766;28;20516;-89
2022/10/30 06:42:32;;;;;;;21.75;12.68;;;13.80;99.90;;;;;;5041264;28;20037;-88
2022/10/30 06:44:57;;;;;;;30.83;13.45;;;13.80;99.90;;;;;;5030878;28;20044;-89
2022/10/30 06:47:23;;;;;;;28.83;12.90;;;13.80;99.90;;;;;;5026717;28;20130;-89
2022/10/30 06:49:49;;;;;;;29.80;13.07;;;13.80;99.90;;;;;;5034273;28;20046;-89
2022/10/30 06:52:14;;;;;;;23.50;13.00;;;13.80;99.90;;;;;;5056621;28;20086;-90
2022/10/30 06:54:40;;;;;;;25.02;12.80;;;13.80;99.90;;;;;;5022047;28;20051;-89
2022/10/30 06:57:06;;;;;;;26.80;13.27;;;13.80;99.90;;;;;;5021198;28;20075;-89
2022/10/30 06:59:31;;;;;;;29.52;13.25;;;13.80;99.90;;;;;;5021760;28;20511;-88
2022/10/30 07:01:57;;;;;;;23.83;13.32;;;13.90;99.90;;;;;;5021142;28;20460;-88
2022/10/30 07:04:23;;;;;;;22.02;12.43;;;13.90;99.90;;;;;;5019581;28;20051;-89
2022/10/30 07:06:48;;;;;;;25.42;13.07;;;13.90;99.90;;;;;;5021182;28;20037;-89
2022/10/30 07:09:14;;;;;;;28.05;13.15;;;13.90;99.90;;;;;;5020952;28;20041;-89
2022/10/30 07:11:44;;;;;;;25.85;13.35;;;13.90;99.90;;;;;;5021183;28;20101;-89
2022/10/30 07:14:10;;;;;;;20.90;12.30;;;14.00;99.90;;;;;;5039068;28;20048;-89
2022/10/30 07:16:36;;;;;;;27.20;12.65;;;14.00;99.90;;;;;;5021060;28;20352;-88
2022/10/30 07:19:02;;;;;;;25.70;12.43;;;14.00;99.90;;;;;;5033556;28;20052;-89
2022/10/30 07:21:28;;;;;;;24.85;13.20;;;14.10;99.90;;;;;;5032573;28;20131;-88
2022/10/30 07:23:53;;;;;;;22.20;12.77;;;14.10;99.90;;;;;;5031009;28;20166;-88
2022/10/30 07:26:19;;;;;;;22.83;13.43;;;14.20;99.90;;;;;;5040807;28;20040;-88
2022/10/30 07:28:45;;;;;;;25.38;13.07;;;14.20;99.90;;;;;;5030150;28;20056;-88
2022/10/30 07:31:10;;;;;;;26.35;13.43;;;14.20;99.90;;;;;;5053736;28;20037;-89
2022/10/30 07:33:36;;;;;;;26.85;13.38;;;14.30;99.90;;;;;;5055620;28;20485;-89
2022/10/30 07:36:02;;;;;;;23.55;12.13;;;14.40;99.90;;;;;;5021244;28;20048;-88
2022/10/30 07:38:28;;;;;;;25.58;12.95;;;14.40;99.90;;;;;;5019643;28;20057;-88
2022/10/30 07:40:53;;;;;;;21.05;12.77;;;14.50;99.90;;;;;;5020786;28;20048;-88
2022/10/30 07:43:19;;;;;;;24.52;12.68;;;14.60;99.90;;;;;;5021014;28;20049;-88
2022/10/30 07:45:45;;;;;;;20.63;11.73;;;14.70;99.90;;;;;;5020054;28;20049;-88
2022/10/30 07:48:11;;;;;;;24.77;12.43;;;14.70;99.90;;;;;;5037015;28;20091;-86
2022/10/30 07:50:36;;;;;;;17.98;11.90;;;14.80;99.90;;;;;;5020231;28;20105;-88
2022/10/30 07:53:03;;;;;;;23.50;12.23;;;14.80;99.90;;;;;;5036307;28;20045;-88
2022/10/30 07:55:29;;;;;;;20.42;11.85;;;14.90;99.90;;;;;;5053677;28;20041;-88
2022/10/30 07:57:55;;;;;;;26.55;11.70;;;15.00;99.90;;;;;;5030988;28;20158;-88
2022/10/30 08:00:21;;;;;;;22.13;11.82;;;15.20;99.90;;;;;;5038879;28;20048;-88
2022/10/30 08:02:50;;;;;;;22.23;11.93;;;;;;;;;;5057251;28;20042;-90
2022/10/30 08:05:16;;;;;;;23.05;11.32;;;;;;;;;;5041961;28;20051;-90
2022/10/30 08:07:45;;;;;;;23.02;10.80;;;;;;;;;;5036825;28;20079;-89
2022/10/30 08:10:11;;;;;;;16.48;9.85;;;;;;;;;;5021121;28;20049;-89
2022/10/30 08:12:39;;;;;;;20.08;10.00;;;;;;;;;;5019876;28;20109;-89
2022/10/30 08:15:05;;;;;;;17.60;10.32;;;;;;;;;;5019797;28;20044;-89
2022/10/30 08:17:32;;;;;;;21.70;10.02;;;;;;;;;;5022979;28;20463;-88
2022/10/30 08:19:58;;;;;;;17.13;8.98;;;;;;;;;;5039700;28;20499;-89
2022/10/30 08:22:24;;;;;;;18.52;9.30;;;;;;;;;;5049018;28;20072;-89
2022/10/30 08:24:50;;;;;;;17.27;8.80;;;;;;;;;;5034965;28;20044;-89
2022/10/30 08:27:16;;;;;;;21.17;9.52;;;;;;;;;;5036826;28;20052;-88
2022/10/30 08:29:42;;;;;;;18.85;9.63;;;;;;;;;;5019116;28;20045;-88
2022/10/30 08:32:08;;;;;;;17.17;8.77;;;;;;;;;;5035889;28;20048;-88
2022/10/30 08:34:34;;;;;;;16.23;8.27;;;;;;;;;;5019229;28;20406;-88
2022/10/30 08:37:00;;;;;;;20.65;8.75;;;;;;;;;;5019687;28;20045;-88
2022/10/30 08:39:26;;;;;;;21.50;8.55;;;;;;;;;;5018708;28;20509;-88
2022/10/30 08:41:52;;;;;;;16.63;8.55;;;;;;;;;;5036253;28;20102;-88
2022/10/30 08:44:18;;;;;;;19.48;9.18;;;;;;;;;;5026956;28;20044;-88
2022/10/30 08:46:44;;;;;;;18.45;8.55;;;;;;;;;;5053216;28;20126;-88
2022/10/30 08:49:10;;;;;;;19.63;9.02;;;;;;;;;;5027384;28;20105;-88
2022/10/30 08:51:36;;;;;;;21.00;9.25;;;;;;;;;;5043510;28;20048;-86
2022/10/30 08:54:03;;;;;;;13.98;8.23;;;;;;;;;;5035957;28;20057;-86
2022/10/30 08:56:28;;;;;;;17.88;8.98;;;15.60;99.90;;;;;;5019287;28;20064;-86
2022/10/30 08:58:54;;;;;;;18.58;8.70;;;26.00;99.90;;;;;;5016593;28;20486;-84
2022/10/30 09:01:20;;;;;;;14.95;8.07;;;27.20;99.90;;;;;;5052561;28;20053;-84
2022/10/30 09:03:46;;;;;;;14.35;7.75;;;28.50;99.90;;;;;;5051861;28;20045;-85
2022/10/30 09:06:12;;;;;;;20.08;8.20;;;29.90;99.90;;;;;;5018206;28;20052;-83
2022/10/30 09:08:38;;;;;;;13.45;7.55;;;30.60;99.50;;;;;;5018460;28;20405;-85
2022/10/30 09:11:04;;;;;;;17.95;8.23;;;30.70;98.10;;;;;;5017424;28;20454;-85
2022/10/30 09:13:30;;;;;;;15.70;7.65;;;30.50;98.30;;;;;;5017274;28;20049;-83
2022/10/30 09:16:02;;;;;;;17.40;7.85;;;30.00;98.10;;;;;;5055223;28;20383;-87
2022/10/30 09:18:28;;;;;;;23.58;8.27;;;29.70;98.50;;;;;;5054854;28;20437;-86
2022/10/30 09:20:54;;;;;;;16.92;7.57;;;29.40;98.00;;;;;;5054659;28;20062;-87
2022/10/30 09:23:20;;;;;;;16.50;8.27;;;29.10;98.00;;;;;;5037620;28;20558;-86
2022/10/30 09:25:45;;;;;;;17.52;7.95;;;29.10;98.20;;;;;;5037656;28;20115;-86
2022/10/30 09:28:11;;;;;;;16.40;7.70;;;28.70;98.40;;;;;;5032996;28;20063;-86
2022/10/30 09:30:37;;;;;;;17.17;7.60;;;27.90;98.80;;;;;;5022728;28;20045;-86
2022/10/30 09:33:03;;;;;;;18.55;7.95;;;27.40;99.80;;;;;;5035279;28;20052;-85
2022/10/30 09:35:29;;;;;;;18.17;8.23;;;26.70;99.90;;;;;;5055070;28;20056;-86
2022/10/30 09:37:55;;;;;;;19.65;7.95;;;26.40;99.90;;;;;;5054533;28;20045;-85
2022/10/30 09:40:30;;;;;;;18.52;7.90;;;26.10;99.90;;;;;;5054011;28;20040;-79
2022/10/30 09:43:23;;;;;;;14.23;7.40;;;25.90;99.90;;;;;;5072019;28;20439;-85
2022/10/30 09:46:16;;;;;;;16.13;7.72;;;25.80;99.90;;;;;;5060052;28;20048;-86
2022/10/30 09:48:54;;;;;;;16.83;7.60;;;25.70;99.90;;;;;;5017827;28;20079;-86
2022/10/30 09:51:44;;;;;;;20.45;7.93;;;25.90;99.90;;;;;;5043849;28;20401;-85
2022/10/30 09:54:14;;;;;;;20.20;8.10;;;26.00;99.90;;;;;;5041818;28;20045;-79
2022/10/30 09:56:54;;;;;;;16.30;7.28;;;26.10;99.90;;;;;;5031344;28;20116;-79
2022/10/30 09:59:47;;;;;;;16.30;7.40;;;26.10;99.90;;;;;;5042301;28;20065;-79
2022/10/30 10:02:33;;;;;;;17.50;6.90;;;26.00;99.90;;;;;;5042857;28;20366;-79
2022/10/30 10:05:20;;;;;;;17.70;7.40;;;25.60;99.90;;;;;;5035173;28;20144;-77
2022/10/30 10:07:49;;;;;;;17.77;7.13;;;25.60;99.90;;;;;;5017487;28;20140;-78
2022/10/30 10:10:24;;;;;;;18.60;7.30;;;25.80;99.90;;;;;;5033655;28;20048;-77
2022/10/30 10:12:52;;;;;;;17.38;6.95;;;25.70;99.90;;;;;;5017848;28;20079;-77
2022/10/30 10:15:35;;;;;;;16.60;6.90;;;25.60;99.90;;;;;;5017308;28;20052;-78
2022/10/30 10:18:03;;;;;;;14.02;6.32;;;25.90;99.90;;;;;;5033841;28;20045;-78
2022/10/30 10:20:40;;;;;;;14.40;6.82;;;26.40;99.90;;;;;;5033577;28;20060;-77
2022/10/30 10:23:24;;;;;;;15.55;6.63;;;26.80;99.90;;;;;;5036661;28;20099;-77
2022/10/30 10:25:53;;;;;;;14.77;6.45;;;27.30;99.90;;;;;;5034787;28;20079;-79
2022/10/30 10:28:40;;;;;;;15.60;6.60;;;27.40;99.90;;;;;;5017074;28;20045;-79
2022/10/30 10:31:31;;;;;;;16.80;6.18;;;27.70;99.90;;;;;;5037842;28;20076;-79
2022/10/30 10:34:09;;;;;;;15.25;7.22;;;28.00;99.90;;;;;;5032630;28;20045;-79
2022/10/30 10:36:48;;;;;;;15.55;6.63;;;28.00;99.90;;;;;;5033277;28;20034;-79
2022/10/30 10:39:45;;;;;;;15.50;7.00;;;27.70;99.90;;;;;;5032748;28;20437;-80
2022/10/30 10:42:29;;;;;;;16.58;6.40;;;27.70;99.90;;;;;;5033220;28;20063;-80
2022/10/30 10:45:18;;;;;;;14.25;6.70;;;28.00;99.90;;;;;;5035050;28;20033;-80
2022/10/30 10:48:11;;;;;;;12.57;5.80;;;28.60;99.90;;;;;;5016618;28;20048;-79
2022/10/30 10:50:48;;;;;;;11.55;6.22;;;29.10;99.90;;;;;;5033907;28;20083;-80
2022/10/30 10:53:33;;;;;;;15.88;6.20;;;29.60;99.90;;;;;;5032695;28;20199;-79
2022/10/30 10:56:00;;;;;;;14.70;6.72;;;29.70;99.30;;;;;;5033039;28;20077;-79
2022/10/30 10:59:11;;;;;;;12.15;5.82;;;29.70;98.80;;;;;;5032401;28;20057;-84
2022/10/30 11:01:44;;;;;;;13.90;5.63;;;29.90;99.40;;;;;;4957097;28;20532;-85
2022/10/30 11:04:39;;;;;;;16.27;6.57;;;30.00;99.00;;;;;;5026100;28;20455;-85
2022/10/30 11:07:20;;;;;;;17.60;6.25;;;30.40;98.70;;;;;;5032767;28;20100;-85
2022/10/30 11:09:51;;;;;;;14.82;6.03;;;30.80;97.90;;;;;;5032483;28;20049;-86
2022/10/30 11:12:22;;;;;;;14.02;6.03;;;31.50;97.60;;;;;;5032830;28;20091;-86
2022/10/30 11:14:47;;;;;;;18.45;6.43;;;31.90;96.40;;;;;;5033091;28;20124;-85
2022/10/30 11:17:37;;;;;;;14.68;5.93;;;31.80;96.20;;;;;;5033351;28;20083;-85
2022/10/30 11:20:20;;;;;;;15.30;5.53;;;31.90;96.00;;;;;;5016186;28;20064;-86
2022/10/30 11:22:52;;;;;;;13.90;5.43;;;32.60;95.50;;;;;;5033616;28;20055;-85
2022/10/30 11:25:22;;;;;;;15.55;5.38;;;33.20;95.10;;;;;;5015888;28;20081;-85
2022/10/30 11:27:52;;;;;;;11.50;5.80;;;33.10;94.40;;;;;;5016215;28;20041;-86
2022/10/30 11:30:21;;;;;;;12.18;5.15;;;33.20;94.60;;;;;;5032665;28;20059;-86
2022/10/30 11:32:46;;;;;;;15.05;5.57;;;34.00;93.80;;;;;;5015727;28;20049;-85
2022/10/30 11:35:18;;;;;;;12.07;5.10;;;34.80;93.20;;;;;;5031140;28;20064;-86
2022/10/30 11:37:45;;;;;;;15.07;5.20;;;35.40;92.30;;;;;;5031875;28;20121;-86
2022/10/30 11:40:11;;;;;;;13.88;5.22;;;35.80;91.50;;;;;;5032353;28;20099;-85
2022/10/30 11:42:57;;;;;;;12.35;4.93;;;35.80;90.90;;;;;;5032826;28;20469;-86
2022/10/30 11:45:33;;;;;;;12.98;4.80;;;35.60;90.90;;;;;;5015251;28;20045;-86
2022/10/30 11:47:59;;;;;;;17.02;5.43;;;35.50;90.50;;;;;;5033194;28;20067;-86
2022/10/30 11:50:30;;;;;;;12.85;4.72;;;35.40;90.20;;;;;;5015457;28;20103;-85
2022/10/30 11:53:08;;;;;;;15.90;4.72;;;35.40;90.00;;;;;;5031693;28;20075;-81
2022/10/30 11:55:38;;;;;;;10.45;4.55;;;35.30;89.40;;;;;;5015011;28;20049;-79
2022/10/30 11:58:08;;;;;;;11.77;4.80;;;33.90;90.10;;;;;;5033298;28;20137;-79
2022/10/30 12:00:35;;;;;;;12.93;4.90;;;;;;;;;;5015222;28;20060;-79
2022/10/30 12:03:05;;;;;;;13.00;4.85;;;;;;;;;;5015320;28;20072;-78
2022/10/30 12:05:33;;;;;;;14.07;4.80;;;;;;;;;;5014570;28;20097;-78
2022/10/30 12:08:05;;;;;;;12.85;4.90;;;;;;;;;;5024346;28;20045;-79
2022/10/30 12:10:32;;;;;;;12.63;5.15;;;;;;;;;;5041954;28;20064;-79
2022/10/30 12:13:03;;;;;;;12.57;4.55;;;;;;;;;;5024364;28;20073;-80
2022/10/30 12:15:31;;;;;;;14.63;4.88;;;;;;;;;;5019271;28;20041;-80
2022/10/30 12:18:07;;;;;;;14.30;4.85;;;;;;;;;;5032805;28;20060;-80
2022/10/30 12:20:36;;;;;;;14.90;5.18;;;;;;;;;;5014889;28;20366;-79
2022/10/30 12:23:28;;;;;;;14.88;4.72;;;;;;;;;;5032254;28;20040;-79
2022/10/30 12:25:59;;;;;;;16.33;5.00;;;;;;;;;;5010411;28;20052;-80
2022/10/30 12:28:26;;;;;;;13.85;5.15;;;;;;;;;;4998281;28;20042;-79
2022/10/30 12:30:53;;;;;;;13.70;4.65;;;;;;;;;;5032770;28;20124;-79
2022/10/30 12:33:27;;;;;;;16.10;5.13;;;;;;;;;;4999991;28;20119;-80
2022/10/30 12:35:57;;;;;;;17.13;5.57;;;;;;;;;;5006992;28;20077;-80
2022/10/30 12:38:24;;;;;;;12.30;4.60;;;;;;;;;;5014861;28;20362;-79
2022/10/30 12:41:14;;;;;;;13.40;4.97;;;;;;;;;;5040607;28;20049;-79
2022/10/30 12:43:41;;;;;;;14.57;5.05;;;;;;;;;;5002003;28;20061;-79
2022/10/30 12:46:26;;;;;;;11.55;4.80;;;;;;;;;;5013036;28;20045;-84
2022/10/30 12:48:56;;;;;;;13.07;5.03;;;;;;;;;;5001091;28;20038;-88
2022/10/30 12:51:46;;;;;;;13.93;5.05;;;;;;;;;;5002968;28;20096;-87
2022/10/30 12:54:16;;;;;;;13.85;4.57;;;;;;;;;;5000451;28;20046;-87
2022/10/30 12:56:43;;;;;;;12.68;5.18;;;;;;;;;;5011618;28;20045;-87